Bookmark and Share
Track history (hours):
 

Pacific Pathfinder

Last reported at 2014-Apr-24 21:33 UTC. Time now 2014-Apr-24 22:15 UTC.
Position N 54°18' W 130°21'.

Length 15 m; draft 1.3 m.

Type: Pilot. MMSI: 316003484.

NotesDate/timePositionNaut miles runAvg speedWind from/ knotsBaromVisibWave heightAir tempDewpointWater temp
2014-Apr-24 21:33N 54°18' W 130°21'0 0.0
2014-Apr-24 20:33N 54°18' W 130°21'2 2.0
2014-Apr-24 19:33N 54°19' W 130°19'2 2.0
2014-Apr-24 18:34N 54°18' W 130°21'0 0.0
2014-Apr-24 17:34N 54°18' W 130°21'0 0.0
2014-Apr-24 16:33N 54°18' W 130°21'0 0.0
2014-Apr-24 15:33N 54°18' W 130°21'0 0.0
2014-Apr-24 14:34N 54°18' W 130°21'0 0.0
2014-Apr-24 13:33N 54°18' W 130°21'0 0.0
2014-Apr-24 12:34N 54°18' W 130°21'0 0.0
2014-Apr-24 11:34N 54°18' W 130°21'0 0.0
2014-Apr-24 10:34N 54°18' W 130°21'0 0.0
2014-Apr-24 09:34N 54°18' W 130°21'0 0.0
2014-Apr-24 08:34N 54°18' W 130°21'4 3.9
2014-Apr-24 07:34N 54°20' W 130°26'0 0.1
2014-Apr-24 06:24N 54°20' W 130°27'4 4.6
2014-Apr-24 05:33N 54°18' W 130°21'5 1.1
2014-Apr-24 01:33N 54°20' W 130°28'6 4.8
2014-Apr-24 00:13N 54°15' W 130°36'913.2
2014-Apr-23 23:33N 54°18' W 130°21'7 3.5
2014-Apr-23 21:26N 54°18' W 130°34'0 0.1
2014-Apr-23 19:04N 54°18' W 130°34'612.7
2014-Apr-23 18:33N 54°18' W 130°23'2 0.9
2014-Apr-23 16:33N 54°17' W 130°22'3 2.6
2014-Apr-23 15:33N 54°19' W 130°21'8 5.5
2014-Apr-23 14:07N 54°18' W 130°35'814.1
2014-Apr-23 13:33N 54°18' W 130°21'0 0.0
2014-Apr-23 12:33N 54°18' W 130°21'0 0.0
2014-Apr-23 11:33N 54°18' W 130°21'0 0.0
2014-Apr-23 10:33N 54°18' W 130°21'0 0.0
2014-Apr-23 09:33N 54°18' W 130°21'0 0.0
2014-Apr-23 08:33N 54°18' W 130°21'0 0.0
2014-Apr-23 07:33N 54°18' W 130°21'1 0.4
2014-Apr-23 04:25N 54°17' W 130°22'1 1.3
2014-Apr-23 03:34N 54°18' W 130°21'0 0.0
2014-Apr-23 02:33N 54°18' W 130°21'0 0.0
2014-Apr-23 01:33N 54°18' W 130°21'0 0.0
2014-Apr-23 00:34N 54°18' W 130°21'0 0.0
2014-Apr-22 23:33N 54°18' W 130°21'0 0.0
2014-Apr-22 22:33N 54°18' W 130°21'0 0.0
2014-Apr-22 21:34N 54°18' W 130°21'0 0.0
2014-Apr-22 20:33N 54°18' W 130°21'0 0.0
2014-Apr-22 19:33N 54°18' W 130°21'1 1.1
2014-Apr-22 18:33N 54°19' W 130°22'1 1.1
2014-Apr-22 17:33N 54°18' W 130°21'0 0.0
2014-Apr-22 16:33N 54°18' W 130°21'0 0.0
2014-Apr-22 15:33N 54°18' W 130°21'0 0.0
2014-Apr-22 14:33N 54°18' W 130°21'0 0.0
2014-Apr-22 13:33N 54°18' W 130°21'0 0.0
2014-Apr-22 12:33N 54°18' W 130°21'3 2.6
2014-Apr-22 11:33N 54°19' W 130°25'3 1.5
2014-Apr-22 09:30N 54°17' W 130°22'1 1.1
2014-Apr-22 08:33N 54°18' W 130°21'0 0.0
2014-Apr-22 07:33N 54°18' W 130°21'0 0.0
2014-Apr-22 06:33N 54°18' W 130°21'0 0.0
2014-Apr-22 05:33N 54°18' W 130°21'0 0.0
2014-Apr-22 04:33N 54°18' W 130°21'0 0.0
2014-Apr-22 03:33N 54°18' W 130°21'0 0.0
2014-Apr-22 02:33N 54°18' W 130°21'8 3.4
2014-Apr-22 00:05N 54°15' W 130°35'815.4
2014-Apr-21 23:33N 54°17' W 130°22'0 0.4
2014-Apr-21 22:33N 54°18' W 130°21'0 0.0
2014-Apr-21 21:33N 54°18' W 130°21'0 0.0
2014-Apr-21 20:33N 54°18' W 130°21'0 0.0
2014-Apr-21 19:33N 54°18' W 130°21'0 0.0
2014-Apr-21 18:33N 54°18' W 130°21'2 2.0
2014-Apr-21 17:33N 54°19' W 130°19'2 2.0
2014-Apr-21 16:33N 54°18' W 130°21'0 0.0
2014-Apr-21 15:33N 54°18' W 130°21'4 4.3
2014-Apr-21 14:33N 54°20' W 130°28'4 0.7
2014-Apr-21 08:33N 54°18' W 130°21'0 0.0
2014-Apr-21 07:33N 54°18' W 130°21'0 0.0
2014-Apr-21 06:33N 54°18' W 130°21'0 0.0
2014-Apr-21 05:33N 54°18' W 130°21'0 0.0
2014-Apr-21 01:33N 54°18' W 130°21'0 0.0
2014-Apr-21 00:33N 54°18' W 130°21'0 0.0
2014-Apr-20 23:33N 54°18' W 130°21'0 0.0
2014-Apr-20 22:33N 54°18' W 130°21'0 0.0
2014-Apr-20 21:33N 54°18' W 130°21'0 0.0
2014-Apr-20 20:33N 54°18' W 130°21'0 0.0
2014-Apr-20 19:33N 54°18' W 130°21'0 0.0
2014-Apr-20 18:33N 54°18' W 130°21'0 0.0
2014-Apr-20 17:33N 54°18' W 130°21'0 0.0
2014-Apr-20 16:33N 54°18' W 130°21'0 0.0
2014-Apr-20 15:33N 54°18' W 130°21'0 0.0
2014-Apr-20 14:33N 54°18' W 130°21'0 0.0
2014-Apr-20 13:33N 54°18' W 130°21'0 0.0
2014-Apr-20 12:33N 54°18' W 130°21'0 0.0
2014-Apr-20 11:33N 54°18' W 130°21'0 0.0
2014-Apr-20 10:33N 54°18' W 130°21'0 0.0
2014-Apr-20 09:33N 54°18' W 130°21'0 0.0
2014-Apr-20 08:33N 54°18' W 130°21'0 0.0
2014-Apr-20 07:33N 54°18' W 130°21'0 0.0
2014-Apr-20 06:33N 54°18' W 130°21'0 0.0
2014-Apr-20 05:33N 54°18' W 130°21'0 0.0
2014-Apr-20 04:33N 54°18' W 130°21'0 0.0
2014-Apr-20 03:33N 54°18' W 130°21'0 0.0
2014-Apr-20 02:33N 54°18' W 130°21'0 0.0
2014-Apr-20 01:33N 54°18' W 130°21'0 0.0
2014-Apr-20 00:33N 54°18' W 130°21'0 0.0
2014-Apr-19 23:33N 54°18' W 130°21'0 0.0
2014-Apr-19 22:33N 54°18' W 130°21'0 0.0
2014-Apr-19 21:33N 54°18' W 130°21'3 2.8
2014-Apr-19 20:34N 54°19' W 130°25'7 4.9
2014-Apr-19 19:11N 54°15' W 130°34'812.5
2014-Apr-19 18:33N 54°18' W 130°21'0 0.0
2014-Apr-19 17:33N 54°18' W 130°21'0 0.0
2014-Apr-19 16:33N 54°18' W 130°21'0 0.0
2014-Apr-19 15:33N 54°18' W 130°21'0 0.0
2014-Apr-19 14:33N 54°18' W 130°21'0 0.0
2014-Apr-19 13:33N 54°18' W 130°21'0 0.0
2014-Apr-19 12:34N 54°18' W 130°21'0 0.0
2014-Apr-19 11:33N 54°18' W 130°21'0 0.0
2014-Apr-19 10:33N 54°18' W 130°21'1 0.9
2014-Apr-19 09:33N 54°17' W 130°22'0 0.2
2014-Apr-19 07:25N 54°16' W 130°22'1 1.4
2014-Apr-19 06:33N 54°18' W 130°21'0 0.0
2014-Apr-19 05:34N 54°18' W 130°21'0 0.0
2014-Apr-19 04:34N 54°18' W 130°21'0 0.0
2014-Apr-19 03:34N 54°18' W 130°21'0 0.0
2014-Apr-19 02:33N 54°18' W 130°21'0 0.0
2014-Apr-19 01:34N 54°18' W 130°21'0 0.0
2014-Apr-19 00:33N 54°18' W 130°21'0 0.0
2014-Apr-18 23:34N 54°18' W 130°21'0 0.0
2014-Apr-18 22:34N 54°18' W 130°21'0 0.0
2014-Apr-18 21:33N 54°18' W 130°21'0 0.0
2014-Apr-18 20:33N 54°18' W 130°21'0 0.0
2014-Apr-18 19:33N 54°18' W 130°21'0 0.0
2014-Apr-18 18:33N 54°18' W 130°21'2 2.0
2014-Apr-18 17:33N 54°19' W 130°19'2 2.0
2014-Apr-18 16:33N 54°18' W 130°21'0 0.0
2014-Apr-18 15:34N 54°18' W 130°21'1 0.6
2014-Apr-18 14:33N 54°17' W 130°22'9 2.1
2014-Apr-18 10:30N 54°15' W 130°36'9 9.5
2014-Apr-18 09:33N 54°18' W 130°21'0 0.0
2014-Apr-18 08:33N 54°18' W 130°21'0 0.0
2014-Apr-18 07:33N 54°18' W 130°21'0 0.0
2014-Apr-18 06:33N 54°18' W 130°21'0 0.0
2014-Apr-18 05:33N 54°18' W 130°21'0 0.0
2014-Apr-18 04:33N 54°18' W 130°21'0 0.0
2014-Apr-18 03:33N 54°18' W 130°21'0 0.0
2014-Apr-18 02:33N 54°18' W 130°21'0 0.0
2014-Apr-18 01:33N 54°18' W 130°21'0 0.0
2014-Apr-18 00:33N 54°18' W 130°21'0 0.0
2014-Apr-17 23:33N 54°18' W 130°21'0 0.0
2014-Apr-17 22:33N 54°18' W 130°21'0 0.0
2014-Apr-17 21:33N 54°18' W 130°21'0 0.0
2014-Apr-17 20:33N 54°18' W 130°21'0 0.0
2014-Apr-17 19:33N 54°18' W 130°21'0 0.0
2014-Apr-17 18:33N 54°18' W 130°21'0 0.0
2014-Apr-17 17:33N 54°18' W 130°21'0 0.0
2014-Apr-17 16:33N 54°18' W 130°21'0 0.0
2014-Apr-17 15:33N 54°18' W 130°21'0 0.0
2014-Apr-17 14:33N 54°18' W 130°21'0 0.0
2014-Apr-17 13:33N 54°18' W 130°21'0 0.0
2014-Apr-17 12:33N 54°18' W 130°21'0 0.0
2014-Apr-17 11:33N 54°18' W 130°21'0 0.0
2014-Apr-17 10:33N 54°18' W 130°21'0 0.0
2014-Apr-17 09:33N 54°18' W 130°21'0 0.0
2014-Apr-17 08:33N 54°18' W 130°21'0 0.0
2014-Apr-17 07:33N 54°18' W 130°21'0 0.0
2014-Apr-17 06:33N 54°18' W 130°21'0 0.0
2014-Apr-17 05:33N 54°18' W 130°21'13 5.8
2014-Apr-17 03:24N 54°16' W 130°43'1314.9
2014-Apr-17 02:33N 54°18' W 130°21'0 0.0
2014-Apr-17 01:33N 54°18' W 130°21'0 0.0
2014-Apr-17 00:33N 54°18' W 130°21'0 0.2
2014-Apr-16 23:34N 54°18' W 130°22'2 0.7
2014-Apr-16 20:33N 54°19' W 130°19'2 1.8
2014-Apr-16 19:33N 54°18' W 130°21'0 0.0
2014-Apr-16 18:33N 54°18' W 130°21'2 1.6
2014-Apr-16 17:33N 54°19' W 130°23'2 0.5
2014-Apr-16 13:19N 54°17' W 130°22'1 1.4
2014-Apr-16 12:33N 54°18' W 130°21'0 0.0
2014-Apr-16 11:33N 54°18' W 130°21'0 0.0
2014-Apr-16 10:33N 54°18' W 130°21'0 0.0
2014-Apr-16 09:33N 54°18' W 130°21'0 0.0
2014-Apr-16 08:33N 54°18' W 130°21'0 0.0
2014-Apr-16 07:33N 54°18' W 130°21'0 0.0
2014-Apr-16 06:33N 54°18' W 130°21'0 0.0
2014-Apr-16 05:33N 54°18' W 130°21'0 0.0
2014-Apr-16 04:33N 54°18' W 130°21'10 4.4
2014-Apr-16 02:22N 54°19' W 130°38'4 0.6
2014-Apr-15 20:08N 54°15' W 130°34'813.5
2014-Apr-15 19:34N 54°18' W 130°21'0 0.0
2014-Apr-15 18:34N 54°18' W 130°21'6 5.0
2014-Apr-15 17:19N 54°15' W 130°31'3 2.5
2014-Apr-15 16:07N 54°15' W 130°36'915.3
2014-Apr-15 15:33N 54°18' W 130°22'0 0.3
2014-Apr-15 14:33N 54°18' W 130°21'0 0.0
2014-Apr-15 12:34N 54°18' W 130°21'0 0.0
2014-Apr-15 11:34N 54°18' W 130°21'0 0.0
2014-Apr-15 10:34N 54°18' W 130°21'0 0.0
2014-Apr-15 09:34N 54°18' W 130°21'0 0.0
2014-Apr-15 08:34N 54°18' W 130°21'0 0.0
2014-Apr-15 07:34N 54°18' W 130°21'0 0.0
2014-Apr-15 06:34N 54°18' W 130°21'0 0.0
2014-Apr-15 05:34N 54°18' W 130°21'0 0.0
2014-Apr-15 03:34N 54°18' W 130°21'0 0.0
2014-Apr-15 02:34N 54°18' W 130°21'0 0.0
2014-Apr-15 01:34N 54°18' W 130°21'0 0.0
2014-Apr-15 00:34N 54°18' W 130°21'0 0.0
2014-Apr-14 23:34N 54°18' W 130°21'0 0.0
2014-Apr-14 22:34N 54°18' W 130°21'0 0.0
2014-Apr-14 21:34N 54°18' W 130°21'  

Dump ship's entire track history

sailing weather and tide predictions

Pacific Pathfinder — PATH — position and weather